Groblersdal Kob Airport


Codes: FAGL/
Name: Groblersdal Kob Airport
City: Groblersdal
Country: South Africa
Elevation: 3051 ft.

Photos at Groblersdal Kob Airport


   Photos courtesy of SpottingLog. You can add your own sightings and photos by signing up for a free trial today.



No photos found.

Weather at Groblersdal Kob Airport


Time (UTC)DescriptionTempratureWindCloud coverageVisibilityPressureHumidity
16-Jun-2024 09:00Clear Sky20°C4 mph, NW0%10000m1024hPa28%
16-Jun-2024 12:00Clear Sky21°C7 mph, NW0%10000m1023hPa26%
16-Jun-2024 15:00Clear Sky19°C4 mph, NW0%10000m1023hPa28%
16-Jun-2024 18:00Clear Sky14°C4 mph, NE0%10000m1024hPa39%
16-Jun-2024 21:00Clear Sky12°C2 mph, E0%10000m1025hPa49%
17-Jun-2024 00:00Clear Sky10°C2 mph, E0%10000m1025hPa61%
17-Jun-2024 03:00Clear Sky9°C2 mph, SE0%10000m1025hPa69%
17-Jun-2024 06:00Clear Sky12°C2 mph, SE0%10000m1027hPa56%
17-Jun-2024 09:00Clear Sky18°C4 mph, NW0%10000m1025hPa40%
17-Jun-2024 12:00Clear Sky21°C7 mph, NW0%10000m1020hPa30%
17-Jun-2024 15:00Clear Sky18°C4 mph, NW0%10000m1020hPa37%
17-Jun-2024 18:00Clear Sky13°C4 mph, E0%10000m1021hPa52%
17-Jun-2024 21:00Clear Sky12°C2 mph, E0%10000m1022hPa58%
18-Jun-2024 00:00Clear Sky10°C2 mph, E0%10000m1022hPa64%
18-Jun-2024 03:00Clear Sky9°C2 mph, E0%10000m1021hPa67%
18-Jun-2024 06:00Clear Sky13°C2 mph, E1%10000m1022hPa52%
18-Jun-2024 09:00Clear Sky19°C4 mph, NW2%10000m1021hPa33%
18-Jun-2024 12:00Clear Sky23°C9 mph, W2%10000m1017hPa27%
18-Jun-2024 15:00Clear Sky20°C7 mph, W1%10000m1017hPa30%
18-Jun-2024 18:00Clear Sky15°C0 mph, S1%10000m1019hPa45%
18-Jun-2024 21:00Clear Sky13°C2 mph, SE0%10000m1019hPa51%
19-Jun-2024 00:00Clear Sky12°C4 mph, SE0%10000m1019hPa57%
19-Jun-2024 03:00Clear Sky11°C4 mph, SE0%10000m1020hPa60%
19-Jun-2024 06:00Clear Sky14°C2 mph, SE0%10000m1021hPa46%
19-Jun-2024 09:00Clear Sky22°C2 mph, W0%10000m1020hPa28%
19-Jun-2024 12:00Clear Sky25°C7 mph, W0%10000m1017hPa20%
19-Jun-2024 15:00Clear Sky21°C4 mph, NW0%10000m1017hPa26%
19-Jun-2024 18:00Clear Sky15°C2 mph, SE0%10000m1020hPa38%
19-Jun-2024 21:00Clear Sky14°C4 mph, SE0%10000m1021hPa41%
20-Jun-2024 00:00Clear Sky12°C4 mph, SE3%10000m1022hPa42%
20-Jun-2024 03:00Broken Clouds12°C4 mph, SE58%10000m1023hPa44%
20-Jun-2024 06:00Broken Clouds15°C4 mph, SE55%10000m1024hPa34%
20-Jun-2024 09:00Few Clouds23°C7 mph, N12%10000m1023hPa23%
20-Jun-2024 12:00Few Clouds25°C11 mph, N15%10000m1020hPa20%
20-Jun-2024 15:00Few Clouds21°C7 mph, NE20%10000m1021hPa30%
20-Jun-2024 18:00Few Clouds15°C4 mph, NE13%10000m1024hPa57%
20-Jun-2024 21:00Clear Sky13°C4 mph, E4%10000m1026hPa69%
21-Jun-2024 00:00Clear Sky11°C4 mph, E3%10000m1026hPa79%
21-Jun-2024 03:00Clear Sky10°C2 mph, E3%10000m1026hPa85%
21-Jun-2024 06:00Clear Sky13°C2 mph, SE2%10000m1028hPa71%